sensor_id;sensor_type;location;lat;lon;timestamp;temperature;humidity
4054;DHT22;2042;47.956;9.222;2022-12-04T00:00:07;-0.50;20.30
4054;DHT22;2042;47.956;9.222;2022-12-04T00:02:34;-0.50;20.20
4054;DHT22;2042;47.956;9.222;2022-12-04T00:05:01;-0.50;20.20
4054;DHT22;2042;47.956;9.222;2022-12-04T00:07:26;-0.50;20.20
4054;DHT22;2042;47.956;9.222;2022-12-04T00:09:52;-0.50;20.20
4054;DHT22;2042;47.956;9.222;2022-12-04T00:12:18;-0.50;20.20
4054;DHT22;2042;47.956;9.222;2022-12-04T00:14:43;-0.50;20.20
4054;DHT22;2042;47.956;9.222;2022-12-04T00:17:09;-0.50;20.20
4054;DHT22;2042;47.956;9.222;2022-12-04T00:19:34;-0.50;20.70
4054;DHT22;2042;47.956;9.222;2022-12-04T00:22:00;-0.50;20.10
4054;DHT22;2042;47.956;9.222;2022-12-04T00:24:26;-0.50;20.00
4054;DHT22;2042;47.956;9.222;2022-12-04T00:26:52;-0.60;19.90
4054;DHT22;2042;47.956;9.222;2022-12-04T00:29:18;-0.60;19.90
4054;DHT22;2042;47.956;9.222;2022-12-04T00:31:44;-0.60;19.90
4054;DHT22;2042;47.956;9.222;2022-12-04T00:34:10;-0.60;19.90
4054;DHT22;2042;47.956;9.222;2022-12-04T00:36:35;-0.60;19.90
4054;DHT22;2042;47.956;9.222;2022-12-04T00:39:02;-0.50;20.00
4054;DHT22;2042;47.956;9.222;2022-12-04T00:41:30;-0.50;20.00
4054;DHT22;2042;47.956;9.222;2022-12-04T00:43:55;-0.50;20.00
4054;DHT22;2042;47.956;9.222;2022-12-04T00:46:22;-0.50;20.10
4054;DHT22;2042;47.956;9.222;2022-12-04T00:48:48;-0.50;20.10
4054;DHT22;2042;47.956;9.222;2022-12-04T00:51:17;-0.50;20.10
4054;DHT22;2042;47.956;9.222;2022-12-04T00:53:44;-0.50;20.10
4054;DHT22;2042;47.956;9.222;2022-12-04T00:56:16;-0.50;20.10
4054;DHT22;2042;47.956;9.222;2022-12-04T00:58:42;-0.50;20.10
4054;DHT22;2042;47.956;9.222;2022-12-04T01:01:11;-0.50;20.00
4054;DHT22;2042;47.956;9.222;2022-12-04T01:03:37;-0.50;20.00
4054;DHT22;2042;47.956;9.222;2022-12-04T01:06:03;-0.50;19.90
4054;DHT22;2042;47.956;9.222;2022-12-04T01:08:29;-0.50;20.00
4054;DHT22;2042;47.956;9.222;2022-12-04T01:10:55;-0.50;19.90
4054;DHT22;2042;47.956;9.222;2022-12-04T01:13:22;-0.50;19.90
4054;DHT22;2042;47.956;9.222;2022-12-04T01:15:48;-0.50;19.90
4054;DHT22;2042;47.956;9.222;2022-12-04T01:18:14;-0.50;20.40
4054;DHT22;2042;47.956;9.222;2022-12-04T01:20:46;-0.50;19.80
4054;DHT22;2042;47.956;9.222;2022-12-04T01:23:13;-0.50;20.30
4054;DHT22;2042;47.956;9.222;2022-12-04T01:25:38;-0.50;19.80
4054;DHT22;2042;47.956;9.222;2022-12-04T01:28:04;-0.50;19.90
4054;DHT22;2042;47.956;9.222;2022-12-04T01:30:30;-0.50;19.90
4054;DHT22;2042;47.956;9.222;2022-12-04T01:32:55;-0.50;19.90
4054;DHT22;2042;47.956;9.222;2022-12-04T01:35:21;-0.50;19.80
4054;DHT22;2042;47.956;9.222;2022-12-04T01:37:46;-0.50;19.80
4054;DHT22;2042;47.956;9.222;2022-12-04T01:40:14;-0.50;19.90
4054;DHT22;2042;47.956;9.222;2022-12-04T01:42:40;-0.50;19.90
4054;DHT22;2042;47.956;9.222;2022-12-04T01:45:33;-0.50;19.80
4054;DHT22;2042;47.956;9.222;2022-12-04T01:48:14;-0.50;19.80
4054;DHT22;2042;47.956;9.222;2022-12-04T01:50:42;-0.50;19.80
4054;DHT22;2042;47.956;9.222;2022-12-04T01:53:09;-0.50;19.80
4054;DHT22;2042;47.956;9.222;2022-12-04T01:55:35;-0.60;19.70
4054;DHT22;2042;47.956;9.222;2022-12-04T01:58:01;-0.60;19.70
4054;DHT22;2042;47.956;9.222;2022-12-04T02:00:27;-0.60;19.70
4054;DHT22;2042;47.956;9.222;2022-12-04T02:02:53;-0.60;19.70
4054;DHT22;2042;47.956;9.222;2022-12-04T02:05:21;-0.60;19.70
4054;DHT22;2042;47.956;9.222;2022-12-04T02:07:50;-0.60;19.70
4054;DHT22;2042;47.956;9.222;2022-12-04T02:10:17;-0.60;19.70
4054;DHT22;2042;47.956;9.222;2022-12-04T02:13:13;-0.60;19.70
4054;DHT22;2042;47.956;9.222;2022-12-04T02:21:11;-0.60;19.60
4054;DHT22;2042;47.956;9.222;2022-12-04T02:31:33;-0.60;19.60
4054;DHT22;2042;47.956;9.222;2022-12-04T02:34:40;-0.60;19.60
4054;DHT22;2042;47.956;9.222;2022-12-04T02:37:16;-0.60;19.60
4054;DHT22;2042;47.956;9.222;2022-12-04T02:39:51;-0.60;19.60
4054;DHT22;2042;47.956;9.222;2022-12-04T02:42:44;-0.60;19.60
4054;DHT22;2042;47.956;9.222;2022-12-04T02:45:14;-0.60;19.60
4054;DHT22;2042;47.956;9.222;2022-12-04T02:47:41;-0.60;19.60
4054;DHT22;2042;47.956;9.222;2022-12-04T02:50:12;-0.60;19.60
4054;DHT22;2042;47.956;9.222;2022-12-04T02:52:41;-0.60;19.60
4054;DHT22;2042;47.956;9.222;2022-12-04T02:55:41;-0.60;19.50
4054;DHT22;2042;47.956;9.222;2022-12-04T02:58:14;-0.60;19.50
4054;DHT22;2042;47.956;9.222;2022-12-04T03:00:44;-0.60;19.50
4054;DHT22;2042;47.956;9.222;2022-12-04T03:03:20;-0.60;19.40
4054;DHT22;2042;47.956;9.222;2022-12-04T03:06:21;-0.70;19.30
4054;DHT22;2042;47.956;9.222;2022-12-04T03:08:45;-0.70;19.70
4054;DHT22;2042;47.956;9.222;2022-12-04T03:11:11;-0.80;19.10
4054;DHT22;2042;47.956;9.222;2022-12-04T03:16:18;-0.80;19.10
4054;DHT22;2042;47.956;9.222;2022-12-04T03:19:12;-0.70;19.30
4054;DHT22;2042;47.956;9.222;2022-12-04T03:21:45;-0.70;19.50
4054;DHT22;2042;47.956;9.222;2022-12-04T03:24:21;-0.70;19.50
4054;DHT22;2042;47.956;9.222;2022-12-04T03:29:40;-0.70;19.20
4054;DHT22;2042;47.956;9.222;2022-12-04T03:32:15;-0.70;19.10
4054;DHT22;2042;47.956;9.222;2022-12-04T03:37:17;-0.70;19.10
4054;DHT22;2042;47.956;9.222;2022-12-04T03:39:55;-0.70;19.00
4054;DHT22;2042;47.956;9.222;2022-12-04T03:42:25;-0.70;19.00
4054;DHT22;2042;47.956;9.222;2022-12-04T03:45:07;-0.70;19.00
4054;DHT22;2042;47.956;9.222;2022-12-04T03:50:22;-0.60;19.10
4054;DHT22;2042;47.956;9.222;2022-12-04T03:53:11;-0.60;19.20
4054;DHT22;2042;47.956;9.222;2022-12-04T03:55:54;-0.60;19.20
4054;DHT22;2042;47.956;9.222;2022-12-04T03:58:26;-0.60;19.20
4054;DHT22;2042;47.956;9.222;2022-12-04T04:00:52;-0.60;19.20
4054;DHT22;2042;47.956;9.222;2022-12-04T04:03:23;-0.60;19.20
4054;DHT22;2042;47.956;9.222;2022-12-04T04:05:53;-0.60;19.20
4054;DHT22;2042;47.956;9.222;2022-12-04T04:08:22;-0.60;19.20
4054;DHT22;2042;47.956;9.222;2022-12-04T04:13:37;-0.60;19.10
4054;DHT22;2042;47.956;9.222;2022-12-04T04:16:24;-0.60;19.10
4054;DHT22;2042;47.956;9.222;2022-12-04T04:19:12;-0.60;19.10
4054;DHT22;2042;47.956;9.222;2022-12-04T04:21:59;-0.60;19.10
4054;DHT22;2042;47.956;9.222;2022-12-04T04:25:02;-0.60;19.10
4054;DHT22;2042;47.956;9.222;2022-12-04T04:27:28;-0.60;19.10
4054;DHT22;2042;47.956;9.222;2022-12-04T04:29:54;-0.60;19.10
4054;DHT22;2042;47.956;9.222;2022-12-04T04:32:41;-0.60;19.00
4054;DHT22;2042;47.956;9.222;2022-12-04T04:38:07;-0.70;19.00
4054;DHT22;2042;47.956;9.222;2022-12-04T04:46:26;-0.60;19.00
4054;DHT22;2042;47.956;9.222;2022-12-04T04:48:34;-0.60;19.00
4054;DHT22;2042;47.956;9.222;2022-12-04T04:51:02;-0.60;19.00
4054;DHT22;2042;47.956;9.222;2022-12-04T04:53:34;-0.60;19.00
4054;DHT22;2042;47.956;9.222;2022-12-04T04:56:02;-0.60;19.00
4054;DHT22;2042;47.956;9.222;2022-12-04T04:58:28;-0.60;19.00
4054;DHT22;2042;47.956;9.222;2022-12-04T05:01:03;-0.60;19.00
4054;DHT22;2042;47.956;9.222;2022-12-04T05:03:30;-0.60;19.00
4054;DHT22;2042;47.956;9.222;2022-12-04T05:05:56;-0.60;19.00
4054;DHT22;2042;47.956;9.222;2022-12-04T05:08:22;-0.60;18.90
4054;DHT22;2042;47.956;9.222;2022-12-04T05:10:48;-0.60;18.90
4054;DHT22;2042;47.956;9.222;2022-12-04T05:13:15;-0.60;19.00
4054;DHT22;2042;47.956;9.222;2022-12-04T05:15:41;-0.60;19.00
4054;DHT22;2042;47.956;9.222;2022-12-04T05:18:07;-0.60;18.90
4054;DHT22;2042;47.956;9.222;2022-12-04T05:20:36;-0.60;19.40
4054;DHT22;2042;47.956;9.222;2022-12-04T05:23:02;-0.60;18.90
4054;DHT22;2042;47.956;9.222;2022-12-04T05:25:28;-0.70;18.80
4054;DHT22;2042;47.956;9.222;2022-12-04T05:27:53;-0.70;18.80
4054;DHT22;2042;47.956;9.222;2022-12-04T05:30:19;-0.70;18.80
4054;DHT22;2042;47.956;9.222;2022-12-04T05:32:45;-0.70;18.80
4054;DHT22;2042;47.956;9.222;2022-12-04T05:35:11;-0.70;18.70
4054;DHT22;2042;47.956;9.222;2022-12-04T05:37:37;-0.70;18.60
4054;DHT22;2042;47.956;9.222;2022-12-04T05:40:05;-0.70;18.60
4054;DHT22;2042;47.956;9.222;2022-12-04T05:42:31;-0.70;18.60
4054;DHT22;2042;47.956;9.222;2022-12-04T05:44:56;-0.70;18.60
4054;DHT22;2042;47.956;9.222;2022-12-04T05:47:22;-0.70;18.60
4054;DHT22;2042;47.956;9.222;2022-12-04T05:49:47;-0.70;18.60
4054;DHT22;2042;47.956;9.222;2022-12-04T05:52:13;-0.70;18.60
4054;DHT22;2042;47.956;9.222;2022-12-04T05:54:39;-0.70;18.70
4054;DHT22;2042;47.956;9.222;2022-12-04T05:57:05;-0.70;18.60
4054;DHT22;2042;47.956;9.222;2022-12-04T05:59:31;-0.70;18.60
4054;DHT22;2042;47.956;9.222;2022-12-04T06:01:56;-0.70;18.50
4054;DHT22;2042;47.956;9.222;2022-12-04T06:04:22;-0.70;18.50
4054;DHT22;2042;47.956;9.222;2022-12-04T06:06:48;-0.70;18.50
4054;DHT22;2042;47.956;9.222;2022-12-04T06:09:13;-0.70;19.00
4054;DHT22;2042;47.956;9.222;2022-12-04T06:11:40;-0.70;18.50
4054;DHT22;2042;47.956;9.222;2022-12-04T06:14:09;-0.80;18.40
4054;DHT22;2042;47.956;9.222;2022-12-04T06:16:37;-0.80;18.20
4054;DHT22;2042;47.956;9.222;2022-12-04T06:19:06;-0.80;18.20
4054;DHT22;2042;47.956;9.222;2022-12-04T06:21:34;-0.80;18.20
4054;DHT22;2042;47.956;9.222;2022-12-04T06:24:00;-0.80;18.20
4054;DHT22;2042;47.956;9.222;2022-12-04T06:26:26;-0.80;18.10
4054;DHT22;2042;47.956;9.222;2022-12-04T06:28:53;-0.90;18.00
4054;DHT22;2042;47.956;9.222;2022-12-04T06:31:19;-0.90;18.00
4054;DHT22;2042;47.956;9.222;2022-12-04T06:33:45;-0.90;18.00
4054;DHT22;2042;47.956;9.222;2022-12-04T06:36:14;-0.90;17.90
4054;DHT22;2042;47.956;9.222;2022-12-04T06:38:40;-0.90;17.90
4054;DHT22;2042;47.956;9.222;2022-12-04T06:41:09;-0.90;17.90
4054;DHT22;2042;47.956;9.222;2022-12-04T06:43:35;-0.90;17.90
4054;DHT22;2042;47.956;9.222;2022-12-04T06:48:29;-0.80;17.90
4054;DHT22;2042;47.956;9.222;2022-12-04T06:51:04;-0.80;17.90
4054;DHT22;2042;47.956;9.222;2022-12-04T06:53:30;-0.80;17.90
4054;DHT22;2042;47.956;9.222;2022-12-04T06:55:58;-0.70;18.00
4054;DHT22;2042;47.956;9.222;2022-12-04T06:58:24;-0.70;18.00
4054;DHT22;2042;47.956;9.222;2022-12-04T07:00:50;-0.70;18.00
4054;DHT22;2042;47.956;9.222;2022-12-04T07:03:16;-0.70;18.00
4054;DHT22;2042;47.956;9.222;2022-12-04T07:05:42;-0.70;18.00
4054;DHT22;2042;47.956;9.222;2022-12-04T07:08:09;-0.70;18.00
4054;DHT22;2042;47.956;9.222;2022-12-04T07:10:35;-0.70;18.00
4054;DHT22;2042;47.956;9.222;2022-12-04T07:13:02;-0.70;18.00
4054;DHT22;2042;47.956;9.222;2022-12-04T07:15:28;-0.60;18.10
4054;DHT22;2042;47.956;9.222;2022-12-04T07:17:54;-0.70;18.00
4054;DHT22;2042;47.956;9.222;2022-12-04T07:20:20;-0.60;18.10
4054;DHT22;2042;47.956;9.222;2022-12-04T07:22:45;-0.60;18.00
4054;DHT22;2042;47.956;9.222;2022-12-04T07:25:11;-0.60;18.10
4054;DHT22;2042;47.956;9.222;2022-12-04T07:27:37;-0.50;18.10
4054;DHT22;2042;47.956;9.222;2022-12-04T07:30:04;-0.50;18.10
4054;DHT22;2042;47.956;9.222;2022-12-04T07:32:30;-0.50;18.10
4054;DHT22;2042;47.956;9.222;2022-12-04T07:34:56;-0.50;18.20
4054;DHT22;2042;47.956;9.222;2022-12-04T07:37:21;-0.50;18.10
4054;DHT22;2042;47.956;9.222;2022-12-04T07:39:50;-0.50;18.20
4054;DHT22;2042;47.956;9.222;2022-12-04T07:42:16;-0.50;18.10
4054;DHT22;2042;47.956;9.222;2022-12-04T07:44:42;-0.50;18.70
4054;DHT22;2042;47.956;9.222;2022-12-04T07:47:08;-0.50;18.20
4054;DHT22;2042;47.956;9.222;2022-12-04T07:49:33;-0.50;18.20
4054;DHT22;2042;47.956;9.222;2022-12-04T07:51:59;-0.40;18.20
4054;DHT22;2042;47.956;9.222;2022-12-04T07:54:24;-0.40;18.20
4054;DHT22;2042;47.956;9.222;2022-12-04T07:56:50;-0.40;18.20
4054;DHT22;2042;47.956;9.222;2022-12-04T07:59:16;-0.40;18.20
4054;DHT22;2042;47.956;9.222;2022-12-04T08:01:41;-0.40;18.20
4054;DHT22;2042;47.956;9.222;2022-12-04T08:04:09;-0.40;18.20
4054;DHT22;2042;47.956;9.222;2022-12-04T08:06:35;-0.40;18.20
4054;DHT22;2042;47.956;9.222;2022-12-04T08:09:02;-0.40;18.20
4054;DHT22;2042;47.956;9.222;2022-12-04T08:11:28;-0.40;18.20
4054;DHT22;2042;47.956;9.222;2022-12-04T08:13:56;-0.40;18.20
4054;DHT22;2042;47.956;9.222;2022-12-04T08:16:21;-0.40;18.20
4054;DHT22;2042;47.956;9.222;2022-12-04T08:18:47;-0.30;18.30
4054;DHT22;2042;47.956;9.222;2022-12-04T08:21:16;-0.30;18.30
4054;DHT22;2042;47.956;9.222;2022-12-04T08:23:42;-0.30;18.30
4054;DHT22;2042;47.956;9.222;2022-12-04T08:26:09;-0.30;18.30
4054;DHT22;2042;47.956;9.222;2022-12-04T08:28:36;-0.30;18.30
4054;DHT22;2042;47.956;9.222;2022-12-04T08:31:03;-0.30;18.30
4054;DHT22;2042;47.956;9.222;2022-12-04T08:33:29;-0.30;18.30
4054;DHT22;2042;47.956;9.222;2022-12-04T08:35:55;-0.20;18.40
4054;DHT22;2042;47.956;9.222;2022-12-04T08:38:21;-0.20;18.40
4054;DHT22;2042;47.956;9.222;2022-12-04T08:40:47;-0.20;18.50
4054;DHT22;2042;47.956;9.222;2022-12-04T08:43:12;-0.10;18.60
4054;DHT22;2042;47.956;9.222;2022-12-04T08:45:38;-0.10;18.60
4054;DHT22;2042;47.956;9.222;2022-12-04T08:48:04;-0.10;18.70
4054;DHT22;2042;47.956;9.222;2022-12-04T08:50:29;-0.10;18.60
4054;DHT22;2042;47.956;9.222;2022-12-04T08:52:55;-0.10;18.60
4054;DHT22;2042;47.956;9.222;2022-12-04T08:55:21;-0.10;18.60
4054;DHT22;2042;47.956;9.222;2022-12-04T08:57:47;-0.10;18.70
4054;DHT22;2042;47.956;9.222;2022-12-04T09:00:14;-0.10;18.70
4054;DHT22;2042;47.956;9.222;2022-12-04T09:02:40;-0.10;18.80
4054;DHT22;2042;47.956;9.222;2022-12-04T09:05:06;-0.10;18.80
4054;DHT22;2042;47.956;9.222;2022-12-04T09:07:32;0.00;18.80
4054;DHT22;2042;47.956;9.222;2022-12-04T09:09:57;0.00;18.90
4054;DHT22;2042;47.956;9.222;2022-12-04T09:12:23;0.00;18.70
4054;DHT22;2042;47.956;9.222;2022-12-04T09:14:48;-0.10;18.80
4054;DHT22;2042;47.956;9.222;2022-12-04T09:17:14;-0.10;18.80
4054;DHT22;2042;47.956;9.222;2022-12-04T09:19:40;-0.10;18.70
4054;DHT22;2042;47.956;9.222;2022-12-04T09:22:06;-0.10;18.60
4054;DHT22;2042;47.956;9.222;2022-12-04T09:24:31;0.00;18.70
4054;DHT22;2042;47.956;9.222;2022-12-04T09:26:57;0.00;18.60
4054;DHT22;2042;47.956;9.222;2022-12-04T09:29:23;0.00;18.60
4054;DHT22;2042;47.956;9.222;2022-12-04T09:31:50;0.10;18.70
4054;DHT22;2042;47.956;9.222;2022-12-04T09:34:16;0.10;18.80
4054;DHT22;2042;47.956;9.222;2022-12-04T09:36:41;0.20;20.80
4054;DHT22;2042;47.956;9.222;2022-12-04T09:39:09;0.20;20.70
4054;DHT22;2042;47.956;9.222;2022-12-04T09:42:01;0.30;20.70
4054;DHT22;2042;47.956;9.222;2022-12-04T09:47:33;0.30;19.20
4054;DHT22;2042;47.956;9.222;2022-12-04T09:50:11;0.40;19.30
4054;DHT22;2042;47.956;9.222;2022-12-04T09:55:34;0.30;19.10
4054;DHT22;2042;47.956;9.222;2022-12-04T09:57:59;0.20;19.00
4054;DHT22;2042;47.956;9.222;2022-12-04T10:00:27;0.20;19.00
4054;DHT22;2042;47.956;9.222;2022-12-04T10:03:03;0.10;18.90
4054;DHT22;2042;47.956;9.222;2022-12-04T10:05:47;0.10;18.80
4054;DHT22;2042;47.956;9.222;2022-12-04T10:10:41;0.20;19.00
4054;DHT22;2042;47.956;9.222;2022-12-04T10:19:13;0.20;18.90
4054;DHT22;2042;47.956;9.222;2022-12-04T10:21:46;0.30;19.00
4054;DHT22;2042;47.956;9.222;2022-12-04T10:24:42;0.30;19.00
4054;DHT22;2042;47.956;9.222;2022-12-04T10:27:35;0.50;19.20
4054;DHT22;2042;47.956;9.222;2022-12-04T10:30:20;0.50;19.30
4054;DHT22;2042;47.956;9.222;2022-12-04T10:32:47;0.60;20.30
4054;DHT22;2042;47.956;9.222;2022-12-04T10:35:29;0.70;18.90
4054;DHT22;2042;47.956;9.222;2022-12-04T10:38:03;0.70;18.90
4054;DHT22;2042;47.956;9.222;2022-12-04T10:40:43;0.70;19.10
4054;DHT22;2042;47.956;9.222;2022-12-04T10:45:54;0.80;18.90
4054;DHT22;2042;47.956;9.222;2022-12-04T10:48:35;0.90;19.00
4054;DHT22;2042;47.956;9.222;2022-12-04T10:51:02;1.10;19.10
4054;DHT22;2042;47.956;9.222;2022-12-04T10:53:34;1.10;19.10
4054;DHT22;2042;47.956;9.222;2022-12-04T10:56:15;1.10;19.50
4054;DHT22;2042;47.956;9.222;2022-12-04T10:58:42;1.10;19.40
4054;DHT22;2042;47.956;9.222;2022-12-04T11:01:11;1.20;19.30
4054;DHT22;2042;47.956;9.222;2022-12-04T11:03:41;1.30;19.20
4054;DHT22;2042;47.956;9.222;2022-12-04T11:06:09;1.40;19.40
4054;DHT22;2042;47.956;9.222;2022-12-04T11:08:41;1.50;19.50
4054;DHT22;2042;47.956;9.222;2022-12-04T11:11:11;1.50;19.60
4054;DHT22;2042;47.956;9.222;2022-12-04T11:13:38;1.50;19.50
4054;DHT22;2042;47.956;9.222;2022-12-04T11:16:04;1.70;19.60
4054;DHT22;2042;47.956;9.222;2022-12-04T11:18:45;1.70;19.60
4054;DHT22;2042;47.956;9.222;2022-12-04T11:21:26;1.80;19.80
4054;DHT22;2042;47.956;9.222;2022-12-04T11:23:53;1.90;20.10
4054;DHT22;2042;47.956;9.222;2022-12-04T11:26:34;2.00;20.20
4054;DHT22;2042;47.956;9.222;2022-12-04T11:29:02;1.90;20.50
4054;DHT22;2042;47.956;9.222;2022-12-04T11:31:30;1.90;20.50
4054;DHT22;2042;47.956;9.222;2022-12-04T11:33:59;2.00;20.50
4054;DHT22;2042;47.956;9.222;2022-12-04T11:36:37;2.00;20.60
4054;DHT22;2042;47.956;9.222;2022-12-04T11:41:36;1.90;20.60
4054;DHT22;2042;47.956;9.222;2022-12-04T11:44:05;1.90;20.70
4054;DHT22;2042;47.956;9.222;2022-12-04T11:46:32;1.80;20.70
4054;DHT22;2042;47.956;9.222;2022-12-04T11:48:59;1.90;20.60
4054;DHT22;2042;47.956;9.222;2022-12-04T11:54:05;1.90;20.90
4054;DHT22;2042;47.956;9.222;2022-12-04T11:56:52;1.80;21.00
4054;DHT22;2042;47.956;9.222;2022-12-04T11:59:34;1.60;20.90
4054;DHT22;2042;47.956;9.222;2022-12-04T12:07:50;1.50;20.70
4054;DHT22;2042;47.956;9.222;2022-12-04T12:24:30;1.80;20.90
4054;DHT22;2042;47.956;9.222;2022-12-04T12:30:03;1.80;21.10
4054;DHT22;2042;47.956;9.222;2022-12-04T12:35:29;1.70;21.10
4054;DHT22;2042;47.956;9.222;2022-12-04T12:38:00;1.60;21.10
4054;DHT22;2042;47.956;9.222;2022-12-04T12:43:12;1.40;20.90
4054;DHT22;2042;47.956;9.222;2022-12-04T12:48:25;1.40;20.90
4054;DHT22;2042;47.956;9.222;2022-12-04T12:51:07;1.30;20.90
4054;DHT22;2042;47.956;9.222;2022-12-04T12:53:38;1.30;20.90
4054;DHT22;2042;47.956;9.222;2022-12-04T12:56:07;1.30;20.80
4054;DHT22;2042;47.956;9.222;2022-12-04T12:58:50;1.40;20.90
4054;DHT22;2042;47.956;9.222;2022-12-04T13:01:55;1.40;20.90
4054;DHT22;2042;47.956;9.222;2022-12-04T13:09:49;1.40;21.00
4054;DHT22;2042;47.956;9.222;2022-12-04T13:12:19;1.30;21.40
4054;DHT22;2042;47.956;9.222;2022-12-04T13:14:45;1.30;20.90
4054;DHT22;2042;47.956;9.222;2022-12-04T13:17:25;1.30;20.90
4054;DHT22;2042;47.956;9.222;2022-12-04T13:19:54;1.30;20.90
4054;DHT22;2042;47.956;9.222;2022-12-04T13:22:35;1.30;20.90
4054;DHT22;2042;47.956;9.222;2022-12-04T13:34:16;1.20;20.90
4054;DHT22;2042;47.956;9.222;2022-12-04T13:38:59;1.10;20.80
4054;DHT22;2042;47.956;9.222;2022-12-04T13:41:36;1.00;20.70
4054;DHT22;2042;47.956;9.222;2022-12-04T13:44:21;1.10;20.80
4054;DHT22;2042;47.956;9.222;2022-12-04T13:46:58;1.00;20.70
4054;DHT22;2042;47.956;9.222;2022-12-04T13:49:30;1.10;20.80
4054;DHT22;2042;47.956;9.222;2022-12-04T13:51:57;1.10;20.80
4054;DHT22;2042;47.956;9.222;2022-12-04T13:54:27;1.20;20.90
4054;DHT22;2042;47.956;9.222;2022-12-04T13:56:56;1.20;21.00
4054;DHT22;2042;47.956;9.222;2022-12-04T14:01:58;1.20;21.00
4054;DHT22;2042;47.956;9.222;2022-12-04T14:05:45;1.20;21.00
4054;DHT22;2042;47.956;9.222;2022-12-04T14:07:59;1.20;21.00
4054;DHT22;2042;47.956;9.222;2022-12-04T14:10:29;1.20;21.00
4054;DHT22;2042;47.956;9.222;2022-12-04T14:13:15;1.20;21.00
4054;DHT22;2042;47.956;9.222;2022-12-04T14:15:42;1.10;20.90
4054;DHT22;2042;47.956;9.222;2022-12-04T14:20:38;1.10;20.90
4054;DHT22;2042;47.956;9.222;2022-12-04T14:25:44;1.00;20.80
4054;DHT22;2042;47.956;9.222;2022-12-04T14:28:23;1.10;20.90
4054;DHT22;2042;47.956;9.222;2022-12-04T14:33:38;1.00;20.90
4054;DHT22;2042;47.956;9.222;2022-12-04T14:36:19;1.00;20.90
4054;DHT22;2042;47.956;9.222;2022-12-04T14:38:57;1.00;20.90
4054;DHT22;2042;47.956;9.222;2022-12-04T14:41:25;1.00;20.90
4054;DHT22;2042;47.956;9.222;2022-12-04T14:43:51;0.90;20.70
4054;DHT22;2042;47.956;9.222;2022-12-04T14:46:31;0.90;20.70
4054;DHT22;2042;47.956;9.222;2022-12-04T14:49:22;0.90;20.70
4054;DHT22;2042;47.956;9.222;2022-12-04T14:59:45;0.70;20.60
4054;DHT22;2042;47.956;9.222;2022-12-04T15:04:48;0.70;20.10
4054;DHT22;2042;47.956;9.222;2022-12-04T15:07:19;0.70;20.50
4054;DHT22;2042;47.956;9.222;2022-12-04T15:09:56;0.60;20.30
4054;DHT22;2042;47.956;9.222;2022-12-04T15:12:53;0.50;20.10
4054;DHT22;2042;47.956;9.222;2022-12-04T15:15:27;0.40;20.00
4054;DHT22;2042;47.956;9.222;2022-12-04T15:18:14;0.30;19.90
4054;DHT22;2042;47.956;9.222;2022-12-04T19:47:27;0.40;18.20
4054;DHT22;2042;47.956;9.222;2022-12-04T19:49:53;0.40;18.60
4054;DHT22;2042;47.956;9.222;2022-12-04T19:52:19;0.30;18.50
4054;DHT22;2042;47.956;9.222;2022-12-04T19:54:44;0.30;18.70
4054;DHT22;2042;47.956;9.222;2022-12-04T19:57:10;0.30;18.90
4054;DHT22;2042;47.956;9.222;2022-12-04T19:59:36;0.30;19.00
4054;DHT22;2042;47.956;9.222;2022-12-04T20:02:01;0.30;19.00
4054;DHT22;2042;47.956;9.222;2022-12-04T20:04:27;0.20;19.00
4054;DHT22;2042;47.956;9.222;2022-12-04T20:06:52;0.20;19.00
4054;DHT22;2042;47.956;9.222;2022-12-04T20:09:20;0.10;19.00
4054;DHT22;2042;47.956;9.222;2022-12-04T20:11:46;0.20;19.20
4054;DHT22;2042;47.956;9.222;2022-12-04T20:14:13;0.20;19.30
4054;DHT22;2042;47.956;9.222;2022-12-04T20:16:39;0.10;19.30
4054;DHT22;2042;47.956;9.222;2022-12-04T20:19:06;0.20;19.40
4054;DHT22;2042;47.956;9.222;2022-12-04T20:21:33;0.20;19.50
4054;DHT22;2042;47.956;9.222;2022-12-04T20:24:03;0.20;19.60
4054;DHT22;2042;47.956;9.222;2022-12-04T20:26:32;0.20;19.60
4054;DHT22;2042;47.956;9.222;2022-12-04T20:28:58;0.20;19.60
4054;DHT22;2042;47.956;9.222;2022-12-04T20:31:30;0.20;19.60
4054;DHT22;2042;47.956;9.222;2022-12-04T20:33:57;0.10;19.50
4054;DHT22;2042;47.956;9.222;2022-12-04T20:36:26;0.10;19.50
4054;DHT22;2042;47.956;9.222;2022-12-04T20:38:53;0.20;19.70
4054;DHT22;2042;47.956;9.222;2022-12-04T20:41:20;0.20;19.70
4054;DHT22;2042;47.956;9.222;2022-12-04T20:43:47;0.20;19.80
4054;DHT22;2042;47.956;9.222;2022-12-04T20:46:30;0.20;19.80
4054;DHT22;2042;47.956;9.222;2022-12-04T20:48:57;0.20;19.80
4054;DHT22;2042;47.956;9.222;2022-12-04T20:51:29;0.20;19.80
4054;DHT22;2042;47.956;9.222;2022-12-04T20:53:56;0.20;19.70
4054;DHT22;2042;47.956;9.222;2022-12-04T20:56:30;0.10;20.20
4054;DHT22;2042;47.956;9.222;2022-12-04T20:58:57;0.20;19.80
4054;DHT22;2042;47.956;9.222;2022-12-04T21:01:24;0.20;19.80
4054;DHT22;2042;47.956;9.222;2022-12-04T21:03:51;0.20;19.80
4054;DHT22;2042;47.956;9.222;2022-12-04T21:06:23;0.20;19.80
4054;DHT22;2042;47.956;9.222;2022-12-04T21:08:50;0.20;19.80
4054;DHT22;2042;47.956;9.222;2022-12-04T21:11:22;0.20;19.80
4054;DHT22;2042;47.956;9.222;2022-12-04T21:13:48;0.10;19.70
4054;DHT22;2042;47.956;9.222;2022-12-04T21:16:33;0.10;19.60
4054;DHT22;2042;47.956;9.222;2022-12-04T21:18:58;0.10;19.60
4054;DHT22;2042;47.956;9.222;2022-12-04T21:21:27;0.00;19.60
4054;DHT22;2042;47.956;9.222;2022-12-04T21:23:53;0.00;19.50
4054;DHT22;2042;47.956;9.222;2022-12-04T21:26:18;0.00;19.50
4054;DHT22;2042;47.956;9.222;2022-12-04T21:28:45;0.00;19.50
4054;DHT22;2042;47.956;9.222;2022-12-04T21:31:11;0.00;19.60
4054;DHT22;2042;47.956;9.222;2022-12-04T21:33:36;0.00;19.60
4054;DHT22;2042;47.956;9.222;2022-12-04T21:36:04;0.00;19.60
4054;DHT22;2042;47.956;9.222;2022-12-04T21:38:37;0.00;19.60
4054;DHT22;2042;47.956;9.222;2022-12-04T21:41:05;-0.10;19.50
4054;DHT22;2042;47.956;9.222;2022-12-04T21:43:32;-0.10;19.50
4054;DHT22;2042;47.956;9.222;2022-12-04T21:46:00;0.00;19.60
4054;DHT22;2042;47.956;9.222;2022-12-04T21:48:26;0.00;19.60
4054;DHT22;2042;47.956;9.222;2022-12-04T21:50:52;0.00;19.60
4054;DHT22;2042;47.956;9.222;2022-12-04T21:53:18;0.00;19.60
4054;DHT22;2042;47.956;9.222;2022-12-04T21:55:51;0.00;19.60
4054;DHT22;2042;47.956;9.222;2022-12-04T21:58:20;0.10;19.60
4054;DHT22;2042;47.956;9.222;2022-12-04T22:00:46;0.10;19.60
4054;DHT22;2042;47.956;9.222;2022-12-04T22:03:12;0.10;19.70
4054;DHT22;2042;47.956;9.222;2022-12-04T22:05:40;0.10;19.70
4054;DHT22;2042;47.956;9.222;2022-12-04T22:08:06;0.10;19.90
4054;DHT22;2042;47.956;9.222;2022-12-04T22:10:33;0.10;19.60
4054;DHT22;2042;47.956;9.222;2022-12-04T22:13:03;0.10;19.60
4054;DHT22;2042;47.956;9.222;2022-12-04T22:15:29;0.10;19.60
4054;DHT22;2042;47.956;9.222;2022-12-04T22:17:55;0.10;19.60
4054;DHT22;2042;47.956;9.222;2022-12-04T22:20:20;0.10;19.60
4054;DHT22;2042;47.956;9.222;2022-12-04T22:22:48;0.10;19.60
4054;DHT22;2042;47.956;9.222;2022-12-04T22:25:13;0.10;19.70
4054;DHT22;2042;47.956;9.222;2022-12-04T22:27:39;0.10;19.70
4054;DHT22;2042;47.956;9.222;2022-12-04T22:30:05;0.00;19.60
4054;DHT22;2042;47.956;9.222;2022-12-04T22:32:31;0.00;19.60
4054;DHT22;2042;47.956;9.222;2022-12-04T22:34:56;0.00;19.60
4054;DHT22;2042;47.956;9.222;2022-12-04T22:37:23;0.00;19.60
4054;DHT22;2042;47.956;9.222;2022-12-04T22:39:48;0.00;19.60
4054;DHT22;2042;47.956;9.222;2022-12-04T22:42:14;0.00;19.60
4054;DHT22;2042;47.956;9.222;2022-12-04T22:44:40;0.00;19.60
4054;DHT22;2042;47.956;9.222;2022-12-04T22:47:05;0.10;19.60
4054;DHT22;2042;47.956;9.222;2022-12-04T22:49:31;0.10;19.60
4054;DHT22;2042;47.956;9.222;2022-12-04T22:51:57;0.10;19.60
4054;DHT22;2042;47.956;9.222;2022-12-04T22:54:22;0.20;19.70
4054;DHT22;2042;47.956;9.222;2022-12-04T22:56:48;0.20;19.80
4054;DHT22;2042;47.956;9.222;2022-12-04T22:59:13;0.20;19.80
4054;DHT22;2042;47.956;9.222;2022-12-04T23:01:39;0.20;19.80